OIHH  Hamadan Airport

Add Bookmark

Hamadan, Iran

Status IATA
Operational HDM
Latitude Longitude
34° 52' 9" N 48° 33' 9" E
34.869202 48.552502
Local (DST + 5) UTC (GMT + 4)
Sep 30, 2014 01:38 Sep 30, 2014 10:08
Sunrise-Sunset Local UTC
Begin Civil Twilight 05:43 02:13
Sunrise 06:08 02:38
Sunset 06:02 14:32
End Civil Twilight 06:28 14:58

Current Weather

METAR Observed MVFR
OIHH 300900Z 20010KT 8000 FEW040 28/00 Q1020 Tue, Sep 30, 2014 @ 09:00 UTC
(1 Hour, 8 Minutes ago)
Marginal Visual Flight Rules
Wind Visibility Clouds Conditions
200° at 10 knots (19 kph) 8000 meters
  • Few at 4,000' AGL
  • No significant weather
Temperatures Readings Precipitation
Current Temp 28°C (82°F)
Dewpoint 0°C (32°F)
Humidity 16%
Altimeter 30.12"Hg
Sea Level Pressure 1020mb
Field Elevation 5764.44'
None Recorded

Additional weather within a 92.6km radius of OIHH

Map ICAO Location
OIHM 69.5km S (160°)

24 Hour Weather History

Loading
-

24 Hour Weather Graphs

Loading
-

CheckWX.com is intended as a tool to help pilots better visualize weather data. It is not intended as a substitute for an official weather briefing obtained from a Flight Service Station. CheckWX.com does not meet the FAA requirements for an official pre-flight weather briefing. Therefore, it's important that pilots still call and obtain an official FSS pre-flight weather briefing.